createdAt,value
2023-05-11T00:01:49.063Z,58.26
2023-05-11T00:04:51.626Z,52.98
2023-05-11T00:07:53.945Z,57.56
2023-05-11T00:10:56.602Z,58.83
2023-05-11T00:13:58.931Z,55.44
2023-05-11T00:17:01.506Z,57.75
2023-05-11T00:20:04.394Z,52.91
2023-05-11T00:23:06.969Z,53.13
2023-05-11T00:26:11.085Z,52.05
2023-05-11T00:29:14.047Z,51.55
2023-05-11T00:32:16.472Z,51.43
2023-05-11T00:35:19.294Z,51.39
2023-05-11T00:38:21.628Z,51.71
2023-05-11T00:41:24.397Z,53.75
2023-05-11T00:44:26.691Z,55.07
2023-05-11T00:47:29.408Z,56.79
2023-05-11T00:50:32.005Z,54.64
2023-05-11T00:53:35.233Z,52.40
2023-05-11T00:56:37.557Z,56.58
2023-05-11T00:59:40.521Z,56.94
2023-05-11T01:02:43.245Z,56.50
2023-05-11T01:06:01.134Z,57.52
2023-05-11T01:09:09.612Z,53.22
2023-05-11T01:12:34.783Z,52.51
2023-05-11T01:15:53.251Z,52.09
2023-05-11T01:19:01.641Z,51.91
2023-05-11T01:22:16.095Z,52.12
2023-05-11T01:25:35.180Z,51.79
2023-05-11T01:28:58.907Z,51.72
2023-05-11T01:32:04.407Z,51.61
2023-05-11T01:35:11.310Z,51.59
2023-05-11T01:38:19.270Z,51.45
2023-05-11T01:41:23.545Z,51.75
2023-05-11T01:44:31.962Z,51.65
2023-05-11T01:47:37.407Z,51.72
2023-05-11T01:50:42.484Z,51.84
2023-05-11T01:53:46.380Z,51.63
2023-05-11T01:56:51.789Z,51.66
2023-05-11T01:59:55.921Z,51.90
2023-05-11T02:03:01.707Z,51.86
2023-05-11T02:06:06.846Z,54.65
2023-05-11T02:09:12.407Z,51.92
2023-05-11T02:12:20.738Z,51.84
2023-05-11T02:15:25.114Z,51.78
2023-05-11T02:18:29.038Z,51.77
2023-05-11T02:21:32.989Z,51.71
2023-05-11T02:24:36.732Z,51.80
2023-05-11T02:27:39.602Z,51.79
2023-05-11T02:30:47.163Z,51.88
2023-05-11T02:33:52.576Z,51.73
2023-05-11T02:37:01.121Z,51.94
2023-05-11T02:40:15.269Z,53.31
2023-05-11T02:43:27.366Z,56.72
2023-05-11T02:46:35.612Z,55.93
2023-05-11T02:49:39.654Z,58.18
2023-05-11T02:52:47.183Z,55.84
2023-05-11T02:55:51.059Z,54.12
2023-05-11T02:58:54.238Z,54.07
2023-05-11T03:01:58.502Z,53.93
2023-05-11T03:05:01.517Z,54.00
2023-05-11T03:08:04.943Z,54.16
2023-05-11T03:11:09.698Z,54.16
2023-05-11T03:14:12.187Z,54.25
2023-05-11T03:17:16.582Z,54.30
2023-05-11T03:20:20.980Z,54.37
2023-05-11T03:23:23.463Z,54.40
2023-05-11T03:26:28.725Z,54.78
2023-05-11T03:29:34.577Z,54.51
2023-05-11T03:32:37.357Z,54.93
2023-05-11T03:35:43.437Z,54.50
2023-05-11T03:38:47.436Z,54.24
2023-05-11T03:41:53.345Z,54.72
2023-05-11T03:44:59.859Z,54.52
2023-05-11T03:48:04.981Z,54.21
2023-05-11T03:51:09.253Z,54.08
2023-05-11T03:54:12.200Z,53.95
2023-05-11T03:57:15.167Z,54.01
2023-05-11T04:00:18.364Z,54.27
2023-05-11T04:03:22.545Z,54.33
2023-05-11T04:06:25.273Z,54.66
2023-05-11T04:09:28.657Z,54.47
2023-05-11T04:12:32.452Z,54.63
2023-05-11T04:15:37.475Z,54.94
2023-05-11T04:18:39.858Z,56.32
2023-05-11T04:21:42.788Z,55.17
2023-05-11T04:24:45.296Z,55.16
2023-05-11T04:27:47.898Z,55.16
2023-05-11T04:30:57.456Z,55.92
2023-05-11T04:34:00.207Z,55.32
2023-05-11T04:37:07.218Z,55.24
2023-05-11T04:40:10.816Z,55.29
2023-05-11T04:43:14.973Z,55.07
2023-05-11T04:46:17.802Z,54.79
2023-05-11T04:49:20.477Z,55.24
2023-05-11T04:52:23.458Z,54.31
2023-05-11T04:55:26.160Z,55.49
2023-05-11T04:58:29.804Z,52.96
2023-05-11T05:01:32.290Z,53.16
2023-05-11T05:04:36.376Z,51.17
2023-05-11T05:07:38.853Z,50.97
2023-05-11T05:10:41.449Z,52.20
2023-05-11T05:13:43.987Z,50.49
2023-05-11T05:16:46.651Z,50.26
2023-05-11T05:19:48.991Z,50.18
2023-05-11T05:22:52.142Z,49.91
2023-05-11T05:25:54.641Z,50.01
2023-05-11T05:28:57.425Z,49.84
2023-05-11T05:32:00.520Z,49.78
2023-05-11T05:35:04.439Z,49.70
2023-05-11T05:38:06.835Z,49.50
2023-05-11T05:41:09.526Z,50.16
2023-05-11T05:44:12.223Z,49.68
2023-05-11T05:47:14.979Z,51.41
2023-05-11T05:50:17.775Z,49.89
2023-05-11T05:53:21.909Z,49.41
2023-05-11T05:56:24.632Z,49.00
2023-05-11T05:59:27.546Z,51.40
2023-05-11T06:02:31.179Z,51.75
2023-05-11T06:05:34.609Z,50.60
2023-05-11T06:08:38.207Z,50.80
2023-05-11T06:11:43.410Z,49.89
2023-05-11T06:14:47.545Z,48.63
2023-05-11T06:17:50.431Z,50.85
2023-05-11T06:20:52.974Z,52.14
2023-05-11T06:23:55.750Z,49.12
2023-05-11T06:27:00.001Z,48.18
2023-05-11T06:30:03.134Z,51.76
2023-05-11T06:33:06.499Z,51.05
2023-05-11T06:36:09.935Z,51.51
2023-05-11T06:39:12.608Z,50.58
2023-05-11T06:42:15.509Z,49.64
2023-05-11T06:45:17.951Z,49.10
2023-05-11T06:48:23.451Z,49.88
2023-05-11T06:51:25.859Z,50.60
2023-05-11T06:54:28.701Z,48.39
2023-05-11T06:57:31.187Z,47.26
2023-05-11T07:00:34.286Z,46.89
2023-05-11T07:03:36.721Z,47.07
2023-05-11T07:06:39.585Z,46.21
2023-05-11T07:09:42.201Z,48.58
2023-05-11T07:12:44.998Z,46.26
2023-05-11T07:15:47.402Z,47.80
2023-05-11T07:18:50.229Z,44.29
2023-05-11T07:21:52.760Z,45.01
2023-05-11T07:24:55.409Z,47.07
2023-05-11T07:27:57.905Z,45.78
2023-05-11T07:31:00.774Z,44.30
2023-05-11T07:34:06.220Z,42.65
2023-05-11T07:37:09.196Z,42.90
2023-05-11T07:40:12.288Z,42.17
2023-05-11T07:43:18.560Z,43.48
2023-05-11T07:46:21.071Z,41.21
2023-05-11T07:49:31.345Z,41.56
2023-05-11T07:52:38.685Z,43.34
2023-05-11T07:55:41.551Z,41.35
2023-05-11T07:58:46.515Z,41.90
2023-05-11T08:01:49.396Z,40.44
2023-05-11T08:04:52.801Z,41.11
2023-05-11T08:07:55.279Z,40.26
2023-05-11T08:10:58.015Z,40.21
2023-05-11T08:14:00.441Z,41.22
2023-05-11T08:17:03.129Z,38.55
2023-05-11T08:20:06.801Z,38.36
2023-05-11T08:23:11.364Z,39.18
2023-05-11T08:26:13.726Z,39.41
2023-05-11T08:29:16.370Z,37.80
2023-05-11T08:32:21.218Z,37.63
2023-05-11T08:35:24.605Z,37.97
2023-05-11T08:38:27.086Z,36.74
2023-05-11T08:41:30.029Z,36.17
2023-05-11T08:44:37.907Z,36.31
2023-05-11T08:47:40.995Z,35.90
2023-05-11T08:50:47.330Z,34.33
2023-05-11T08:53:50.158Z,34.90
2023-05-11T08:56:52.779Z,33.73
2023-05-11T08:59:55.583Z,34.78
2023-05-11T09:02:58.598Z,33.54
2023-05-11T09:06:03.064Z,32.00
2023-05-11T09:09:05.609Z,32.19
2023-05-11T09:12:09.858Z,33.05
2023-05-11T09:15:12.968Z,31.81
2023-05-11T09:18:15.439Z,31.90
2023-05-11T09:21:20.110Z,32.70
2023-05-11T09:24:22.837Z,32.75
2023-05-11T09:27:26.036Z,32.83
2023-05-11T09:30:28.948Z,32.31
2023-05-11T09:33:31.505Z,31.71
2023-05-11T09:36:34.614Z,32.21
2023-05-11T09:39:44.729Z,31.89
2023-05-11T09:43:03.901Z,32.89
2023-05-11T09:46:23.000Z,32.25
2023-05-11T09:49:29.360Z,34.02
2023-05-11T09:52:32.147Z,32.84
2023-05-11T09:55:35.502Z,32.98
2023-05-11T09:58:57.395Z,31.33
2023-05-11T10:02:17.730Z,31.39
2023-05-11T10:05:20.604Z,29.85
2023-05-11T10:08:30.358Z,30.46
2023-05-11T10:11:33.179Z,29.56
2023-05-11T10:14:36.358Z,29.48
2023-05-11T10:17:39.469Z,29.74
2023-05-11T10:20:42.265Z,28.89
2023-05-11T10:23:45.387Z,29.73
2023-05-11T10:26:47.985Z,31.26
2023-05-11T10:29:51.629Z,31.74
2023-05-11T10:32:55.313Z,29.06
2023-05-11T10:35:58.094Z,30.60
2023-05-11T10:39:00.466Z,28.40
2023-05-11T10:42:09.816Z,29.43
2023-05-11T10:45:26.672Z,27.90
2023-05-11T10:49:00.629Z,28.73
2023-05-11T10:52:08.874Z,29.60
2023-05-11T10:56:06.238Z,27.23
2023-05-11T10:59:35.519Z,26.75
2023-05-11T11:02:38.650Z,27.47
2023-05-11T11:05:43.914Z,28.68
2023-05-11T11:09:16.587Z,28.67
2023-05-11T11:12:20.755Z,29.17
2023-05-11T11:15:23.888Z,28.60
2023-05-11T11:18:35.818Z,28.06
2023-05-11T11:21:53.497Z,27.63
2023-05-11T11:24:56.311Z,29.32
2023-05-11T11:27:59.187Z,29.06
2023-05-11T11:31:28.075Z,28.88
2023-05-11T11:34:31.878Z,30.50
2023-05-11T11:38:03.873Z,28.91
2023-05-11T11:41:08.715Z,30.08
2023-05-11T11:44:22.093Z,28.56
2023-05-11T11:47:26.360Z,27.11
2023-05-11T11:50:29.300Z,26.98
2023-05-11T11:53:58.965Z,28.51
2023-05-11T11:57:03.493Z,28.33
2023-05-11T12:00:10.850Z,28.71
2023-05-11T12:03:25.967Z,30.00
2023-05-11T12:06:44.569Z,30.10
2023-05-11T12:09:47.605Z,30.09
2023-05-11T12:12:55.247Z,30.42
2023-05-11T12:16:10.519Z,30.48
2023-05-11T12:19:24.152Z,30.35
2023-05-11T12:22:31.824Z,29.53
2023-05-11T12:25:40.578Z,30.36
2023-05-11T12:28:46.027Z,30.70
2023-05-11T12:31:48.855Z,29.66
2023-05-11T12:35:01.708Z,29.40
2023-05-11T12:38:06.259Z,30.32
2023-05-11T12:41:11.683Z,29.01
2023-05-11T12:44:16.658Z,30.03
2023-05-11T12:47:19.346Z,28.84
2023-05-11T12:50:22.498Z,28.89
2023-05-11T12:53:25.330Z,28.80
2023-05-11T12:56:31.140Z,28.80
2023-05-11T12:59:35.165Z,28.62
2023-05-11T13:02:55.023Z,28.59
2023-05-11T13:06:12.084Z,27.86
2023-05-11T13:09:27.777Z,27.21
2023-05-11T13:12:36.422Z,28.30
2023-05-11T13:15:52.423Z,28.74
2023-05-11T13:19:05.830Z,28.66
2023-05-11T13:22:11.308Z,29.32
2023-05-11T13:25:19.850Z,28.57
2023-05-11T13:28:24.639Z,29.13
2023-05-11T13:31:27.106Z,29.41
2023-05-11T13:34:29.872Z,29.16
2023-05-11T13:37:32.501Z,29.18
2023-05-11T13:40:35.767Z,29.71
2023-05-11T13:43:43.173Z,30.11
2023-05-11T13:46:46.138Z,29.36
2023-05-11T13:49:48.952Z,29.83
2023-05-11T13:52:52.508Z,29.38
2023-05-11T13:55:55.537Z,29.49
2023-05-11T13:59:00.021Z,29.54
2023-05-11T14:02:02.701Z,29.68
2023-05-11T14:05:05.796Z,28.95
2023-05-11T14:08:08.233Z,29.28
2023-05-11T14:11:11.029Z,29.19
2023-05-11T14:14:14.085Z,30.06
2023-05-11T14:17:16.798Z,29.62
2023-05-11T14:20:19.340Z,30.14
2023-05-11T14:23:21.969Z,29.05
2023-05-11T14:26:24.360Z,30.07
2023-05-11T14:29:31.839Z,29.41
2023-05-11T14:32:34.424Z,29.07
2023-05-11T14:35:39.063Z,28.88
2023-05-11T14:38:42.282Z,29.97
2023-05-11T14:41:48.248Z,29.84
2023-05-11T14:44:50.694Z,30.15
2023-05-11T14:47:53.465Z,30.17
2023-05-11T14:50:56.427Z,30.67
2023-05-11T14:53:59.967Z,30.96
2023-05-11T14:57:02.755Z,29.85
2023-05-11T15:00:10.834Z,31.81
2023-05-11T15:03:17.959Z,31.68
2023-05-11T15:06:23.654Z,31.75
2023-05-11T15:09:29.627Z,31.83
2023-05-11T15:12:42.803Z,31.31
2023-05-11T15:15:45.478Z,31.08
2023-05-11T15:18:48.206Z,31.49
2023-05-11T15:21:50.749Z,31.64
2023-05-11T15:24:53.622Z,31.18
2023-05-11T15:27:56.109Z,31.52
2023-05-11T15:30:58.798Z,31.49
2023-05-11T15:34:01.674Z,32.07
2023-05-11T15:37:04.476Z,32.24
2023-05-11T15:40:08.602Z,32.11
2023-05-11T15:43:11.674Z,32.40
2023-05-11T15:46:14.151Z,32.41
2023-05-11T15:49:17.071Z,32.78
2023-05-11T15:52:22.431Z,33.07
2023-05-11T15:55:25.547Z,32.65
2023-05-11T15:58:29.236Z,32.51
2023-05-11T16:01:32.760Z,33.22
2023-05-11T16:04:35.827Z,32.67
2023-05-11T16:07:38.758Z,32.82
2023-05-11T16:10:41.538Z,33.24
2023-05-11T16:13:43.972Z,33.45
2023-05-11T16:16:46.725Z,33.35
2023-05-11T16:19:49.176Z,34.30
2023-05-11T16:22:51.929Z,34.68
2023-05-11T16:25:56.423Z,34.98
2023-05-11T16:28:59.065Z,34.63
2023-05-11T16:32:01.731Z,35.18
2023-05-11T16:35:04.791Z,34.76
2023-05-11T16:38:07.220Z,34.68
2023-05-11T16:41:09.959Z,34.60
2023-05-11T16:44:12.434Z,35.05
2023-05-11T16:47:15.112Z,35.09
2023-05-11T16:50:18.452Z,35.02
2023-05-11T16:53:27.601Z,36.09
2023-05-11T16:56:30.017Z,35.40
2023-05-11T16:59:34.573Z,36.04
2023-05-11T17:02:37.130Z,37.22
2023-05-11T17:05:40.023Z,36.36
2023-05-11T17:08:42.370Z,38.57
2023-05-11T17:11:45.263Z,39.60
2023-05-11T17:14:47.624Z,40.17
2023-05-11T17:17:53.232Z,40.97
2023-05-11T17:20:56.102Z,41.00
2023-05-11T17:23:58.874Z,41.21
2023-05-11T17:27:01.299Z,42.11
2023-05-11T17:30:05.835Z,41.48
2023-05-11T17:33:08.529Z,43.17
2023-05-11T17:36:15.022Z,42.28
2023-05-11T17:39:19.187Z,43.56
2023-05-11T17:42:21.852Z,43.39
2023-05-11T17:45:25.624Z,45.19
2023-05-11T17:48:28.393Z,44.59
2023-05-11T17:51:31.308Z,44.45
2023-05-11T17:54:34.233Z,44.42
2023-05-11T17:57:37.579Z,44.62
2023-05-11T18:00:40.262Z,45.04
2023-05-11T18:03:42.967Z,45.24
2023-05-11T18:06:45.334Z,46.99
2023-05-11T18:09:48.202Z,44.94
2023-05-11T18:12:50.549Z,45.34
2023-05-11T18:15:53.625Z,44.89
2023-05-11T18:18:56.309Z,44.62
2023-05-11T18:21:59.360Z,45.06
2023-05-11T18:25:02.527Z,45.41
2023-05-11T18:28:05.237Z,45.66
2023-05-11T18:31:07.801Z,46.09
2023-05-11T18:34:10.657Z,46.24
2023-05-11T18:37:13.276Z,46.64
2023-05-11T18:40:15.968Z,46.92
2023-05-11T18:43:18.644Z,47.27
2023-05-11T18:46:21.693Z,47.38
2023-05-11T18:49:24.208Z,47.97
2023-05-11T18:52:27.371Z,48.03
2023-05-11T18:55:35.327Z,49.33
2023-05-11T18:58:41.313Z,50.90
2023-05-11T19:01:48.189Z,52.15
2023-05-11T19:04:51.384Z,52.45
2023-05-11T19:07:53.926Z,52.76
2023-05-11T19:10:56.705Z,54.14
2023-05-11T19:13:59.140Z,54.00
2023-05-11T19:17:02.761Z,54.33
2023-05-11T19:20:06.060Z,54.30
2023-05-11T19:23:08.763Z,54.72
2023-05-11T19:26:11.184Z,55.22
2023-05-11T19:29:17.746Z,56.09
2023-05-11T19:32:20.546Z,57.30
2023-05-11T19:35:23.354Z,57.42
2023-05-11T19:38:25.809Z,58.96
2023-05-11T19:41:28.550Z,59.57
2023-05-11T19:44:34.631Z,60.15
2023-05-11T19:47:39.206Z,60.65
2023-05-11T19:50:41.707Z,61.03
2023-05-11T19:53:44.877Z,61.57
2023-05-11T19:56:47.212Z,62.23
2023-05-11T19:59:50.150Z,63.46
2023-05-11T20:02:53.375Z,64.24
2023-05-11T20:05:56.222Z,63.68
2023-05-11T20:08:58.613Z,64.68
2023-05-11T20:14:34.247Z,64.66
2023-05-11T20:17:37.115Z,64.66
2023-05-11T20:20:39.450Z,66.46
2023-05-11T20:23:42.134Z,66.54
2023-05-11T20:26:45.132Z,66.82
2023-05-11T20:29:47.790Z,67.09
2023-05-11T20:35:55.630Z,67.20
2023-05-11T20:38:58.873Z,67.91
2023-05-11T20:42:04.425Z,67.90
2023-05-11T20:45:07.550Z,67.29
2023-05-11T20:48:10.885Z,67.75
2023-05-11T20:51:13.413Z,68.02
2023-05-11T20:54:16.667Z,68.66
2023-05-11T20:57:19.467Z,68.11
2023-05-11T21:00:22.833Z,68.72
2023-05-11T21:03:28.416Z,69.29
2023-05-11T21:06:32.850Z,69.42
2023-05-11T21:09:35.212Z,71.07
2023-05-11T21:12:37.855Z,70.17
2023-05-11T21:15:40.240Z,69.87
2023-05-11T21:18:43.319Z,70.34
2023-05-11T21:21:48.596Z,70.87
2023-05-11T21:24:51.147Z,70.11
2023-05-11T21:27:53.507Z,70.24
2023-05-11T21:30:57.840Z,70.51
2023-05-11T21:34:00.223Z,71.19
2023-05-11T21:37:03.616Z,71.18
2023-05-11T21:40:07.335Z,71.08
2023-05-11T21:43:11.027Z,71.29
2023-05-11T21:46:14.981Z,71.17
2023-05-11T21:49:17.724Z,70.59
2023-05-11T21:52:20.058Z,70.33
2023-05-11T21:55:23.233Z,70.43
2023-05-11T21:58:26.834Z,70.67
2023-05-11T22:01:29.443Z,70.09
2023-05-11T22:04:32.083Z,70.71
2023-05-11T22:07:34.452Z,69.88
2023-05-11T22:10:37.176Z,70.56
2023-05-11T22:13:39.533Z,70.59
2023-05-11T22:16:42.310Z,70.28
2023-05-11T22:19:44.649Z,70.98
2023-05-11T22:22:47.311Z,70.29
2023-05-11T22:25:49.674Z,69.54
2023-05-11T22:28:52.622Z,69.58
2023-05-11T22:31:55.031Z,69.37
2023-05-11T22:34:59.170Z,69.29
2023-05-11T22:38:01.883Z,69.74
2023-05-11T22:41:05.222Z,69.57
2023-05-11T22:44:08.683Z,70.39
2023-05-11T22:47:11.812Z,69.49
2023-05-11T22:50:14.153Z,70.00
2023-05-11T22:53:19.148Z,69.19
2023-05-11T22:56:21.485Z,69.65
2023-05-11T22:59:24.213Z,70.62
2023-05-11T23:02:26.542Z,71.02
2023-05-11T23:05:29.957Z,70.85
2023-05-11T23:08:32.535Z,70.26
2023-05-11T23:11:35.155Z,70.56
2023-05-11T23:14:37.505Z,70.92
2023-05-11T23:17:40.238Z,71.01
2023-05-11T23:20:42.674Z,71.27
2023-05-11T23:23:45.321Z,70.75
2023-05-11T23:26:47.810Z,70.88
2023-05-11T23:29:50.629Z,71.39
2023-05-11T23:32:52.982Z,71.32
2023-05-11T23:35:56.475Z,71.28
2023-05-11T23:38:58.781Z,72.05
2023-05-11T23:42:01.446Z,72.21
2023-05-11T23:45:04.936Z,72.21
2023-05-11T23:48:07.645Z,72.17
2023-05-11T23:51:10.008Z,72.91
2023-05-11T23:54:13.175Z,72.26
2023-05-11T23:57:15.959Z,72.93
